createdAt,value
2023-04-03T00:01:01.693Z,97843.53
2023-04-03T00:03:04.309Z,97845.31
2023-04-03T00:05:07.737Z,97842.66
2023-04-03T00:07:10.400Z,97838.34
2023-04-03T00:09:12.938Z,97844.31
2023-04-03T00:11:16.168Z,97835.69
2023-04-03T00:13:18.765Z,97840.94
2023-04-03T00:15:21.590Z,97835.75
2023-04-03T00:17:25.752Z,97839.16
2023-04-03T00:19:28.344Z,97838.34
2023-04-03T00:21:31.543Z,97842.66
2023-04-03T00:23:34.988Z,97842.66
2023-04-03T00:25:38.219Z,97837.44
2023-04-03T00:27:41.550Z,97836.63
2023-04-03T00:29:44.084Z,97835.75
2023-04-03T00:31:46.673Z,97839.22
2023-04-03T00:33:50.661Z,97837.53
2023-04-03T00:35:53.392Z,97840.13
2023-04-03T00:37:57.260Z,97839.28
2023-04-03T00:40:02.308Z,97841.03
2023-04-03T00:42:05.007Z,97832.38
2023-04-03T00:44:22.108Z,97843.69
2023-04-03T00:46:24.700Z,97846.25
2023-04-03T00:48:31.552Z,97846.25
2023-04-03T00:50:37.881Z,97845.41
2023-04-03T00:52:41.451Z,97841.94
2023-04-03T00:54:48.349Z,97848.00
2023-04-03T00:56:53.701Z,97842.81
2023-04-03T00:59:00.745Z,97839.41
2023-04-03T01:01:08.640Z,97845.41
2023-04-03T01:03:11.229Z,97831.59
2023-04-03T01:05:17.053Z,97836.78
2023-04-03T01:07:24.728Z,97838.50
2023-04-03T01:09:28.104Z,97836.78
2023-04-03T01:11:30.696Z,97840.28
2023-04-03T01:13:35.273Z,97842.84
2023-04-03T01:15:37.868Z,97839.41
2023-04-03T01:17:42.199Z,97839.44
2023-04-03T01:19:56.852Z,97843.78
2023-04-03T01:22:20.080Z,97837.75
2023-04-03T01:24:34.097Z,97836.03
2023-04-03T01:26:37.200Z,97841.25
2023-04-03T01:28:40.111Z,97841.25
2023-04-03T01:30:49.573Z,97842.97
2023-04-03T01:32:53.504Z,97849.00
2023-04-03T01:34:56.121Z,97842.13
2023-04-03T01:36:58.774Z,97838.72
2023-04-03T01:39:02.208Z,97845.63
2023-04-03T01:41:04.787Z,97840.47
2023-04-03T01:43:07.308Z,97846.59
2023-04-03T01:45:11.102Z,97845.72
2023-04-03T01:47:13.642Z,97841.41
2023-04-03T01:49:17.540Z,97847.47
2023-04-03T01:51:20.116Z,97840.59
2023-04-03T01:53:22.716Z,97842.31
2023-04-03T01:55:25.299Z,97842.34
2023-04-03T01:57:27.988Z,97838.00
2023-04-03T01:59:30.652Z,97839.75
2023-04-03T02:01:33.431Z,97834.59
2023-04-03T02:03:36.604Z,97844.06
2023-04-03T02:05:40.678Z,97836.28
2023-04-03T02:07:43.209Z,97832.81
2023-04-03T02:09:45.786Z,97838.00
2023-04-03T02:11:48.348Z,97837.19
2023-04-03T02:13:51.096Z,97842.41
2023-04-03T02:15:53.646Z,97849.28
2023-04-03T02:17:56.239Z,97845.88
2023-04-03T02:19:58.814Z,97852.75
2023-04-03T02:22:03.024Z,97849.31
2023-04-03T02:24:06.308Z,97846.72
2023-04-03T02:26:11.260Z,97849.31
2023-04-03T02:28:13.810Z,97843.38
2023-04-03T02:30:16.569Z,97839.91
2023-04-03T02:32:19.157Z,97840.78
2023-04-03T02:34:21.866Z,97841.66
2023-04-03T02:36:24.490Z,97842.63
2023-04-03T02:38:28.498Z,97847.78
2023-04-03T02:40:31.036Z,97849.56
2023-04-03T02:42:34.168Z,97842.63
2023-04-03T02:44:37.109Z,97852.16
2023-04-03T02:46:39.668Z,97855.59
2023-04-03T02:48:42.297Z,97846.97
2023-04-03T02:50:44.868Z,97849.56
2023-04-03T02:52:47.647Z,97852.16
2023-04-03T02:54:51.540Z,97856.47
2023-04-03T02:56:54.118Z,97859.94
2023-04-03T02:58:56.791Z,97863.38
2023-04-03T03:00:59.358Z,97853.00
2023-04-03T03:03:02.025Z,97856.47
2023-04-03T03:05:05.119Z,97858.19
2023-04-03T03:07:07.670Z,97853.00
2023-04-03T03:09:10.261Z,97855.59
2023-04-03T03:11:14.418Z,97858.16
2023-04-03T03:13:16.961Z,97855.59
2023-04-03T03:15:20.380Z,97849.56
2023-04-03T03:17:22.951Z,97850.41
2023-04-03T03:19:25.670Z,97850.41
2023-04-03T03:21:28.328Z,97853.88
2023-04-03T03:23:33.098Z,97854.75
2023-04-03T03:25:35.940Z,97853.91
2023-04-03T03:27:39.954Z,97847.84
2023-04-03T03:29:42.521Z,97850.44
2023-04-03T03:31:45.516Z,97847.84
2023-04-03T03:33:48.108Z,97851.31
2023-04-03T03:35:50.847Z,97850.47
2023-04-03T03:37:53.508Z,97845.31
2023-04-03T03:39:58.890Z,97852.19
2023-04-03T03:42:01.442Z,97851.31
2023-04-03T03:44:05.584Z,97843.53
2023-04-03T03:46:08.181Z,97846.97
2023-04-03T03:48:10.740Z,97841.78
2023-04-03T03:50:13.288Z,97845.31
2023-04-03T03:52:16.466Z,97841.84
2023-04-03T03:54:19.071Z,97843.56
2023-04-03T03:56:21.635Z,97842.72
2023-04-03T03:58:24.295Z,97841.88
2023-04-03T04:00:28.208Z,97845.31
2023-04-03T04:02:30.947Z,97845.31
2023-04-03T04:04:33.566Z,97850.50
2023-04-03T04:06:36.102Z,97847.94
2023-04-03T04:08:38.688Z,97844.50
2023-04-03T04:10:41.259Z,97844.50
2023-04-03T04:12:43.843Z,97847.91
2023-04-03T04:14:47.594Z,97847.94
2023-04-03T04:16:51.660Z,97847.09
2023-04-03T04:18:54.297Z,97846.22
2023-04-03T04:20:56.859Z,97847.09
2023-04-03T04:22:59.429Z,97847.91
2023-04-03T04:25:04.855Z,97850.50
2023-04-03T04:27:07.518Z,97852.25
2023-04-03T04:29:10.866Z,97853.09
2023-04-03T04:31:13.465Z,97847.91
2023-04-03T04:33:17.423Z,97847.97
2023-04-03T04:35:20.050Z,97846.25
2023-04-03T04:37:22.613Z,97846.28
2023-04-03T04:39:25.266Z,97843.69
2023-04-03T04:41:27.856Z,97854.91
2023-04-03T04:43:30.399Z,97856.66
2023-04-03T04:45:32.986Z,97852.19
2023-04-03T04:47:35.556Z,97853.16
2023-04-03T04:49:39.520Z,97854.88
2023-04-03T04:51:51.650Z,97857.47
2023-04-03T04:53:56.169Z,97858.34
2023-04-03T04:55:58.862Z,97854.88
2023-04-03T04:58:01.422Z,97860.94
2023-04-03T05:00:05.070Z,97850.59
2023-04-03T05:02:07.658Z,97853.19
2023-04-03T05:04:10.454Z,97853.19
2023-04-03T05:06:14.357Z,97859.19
2023-04-03T05:08:17.032Z,97866.06
2023-04-03T05:10:19.684Z,97862.69
2023-04-03T05:12:22.261Z,97864.41
2023-04-03T05:14:25.118Z,97860.09
2023-04-03T05:16:27.716Z,97864.41
2023-04-03T05:18:30.284Z,97868.75
2023-04-03T05:20:33.103Z,97868.75
2023-04-03T05:22:36.995Z,97873.94
2023-04-03T05:24:39.959Z,97867.03
2023-04-03T05:26:42.531Z,97872.25
2023-04-03T05:28:45.269Z,97875.69
2023-04-03T05:30:54.224Z,97875.66
2023-04-03T05:32:56.880Z,97873.13
2023-04-03T05:35:01.211Z,97879.13
2023-04-03T05:37:05.405Z,97875.69
2023-04-03T05:39:09.697Z,97878.28
2023-04-03T05:41:13.262Z,97874.00
2023-04-03T05:43:15.949Z,97880.03
2023-04-03T05:45:18.647Z,97880.84
2023-04-03T05:47:21.461Z,97880.84
2023-04-03T05:49:24.039Z,97883.47
2023-04-03T05:51:30.857Z,97880.84
2023-04-03T05:53:37.505Z,97881.69
2023-04-03T05:55:41.442Z,97884.28
2023-04-03T05:57:44.064Z,97884.25
2023-04-03T05:59:48.431Z,97892.00
2023-04-03T06:01:50.998Z,97886.84
2023-04-03T06:03:53.859Z,97887.72
2023-04-03T06:05:56.592Z,97885.13
2023-04-03T06:07:59.145Z,97892.00
2023-04-03T06:10:02.304Z,97898.97
2023-04-03T06:12:06.296Z,97903.28
2023-04-03T06:14:08.946Z,97900.69
2023-04-03T06:16:16.242Z,97903.25
2023-04-03T06:18:18.833Z,97905.81
2023-04-03T06:20:21.505Z,97905.00
2023-04-03T06:22:26.531Z,97902.38
2023-04-03T06:24:29.711Z,97904.06
2023-04-03T06:26:32.841Z,97906.66
2023-04-03T06:28:36.747Z,97903.09
2023-04-03T06:30:39.465Z,97902.31
2023-04-03T06:32:42.387Z,97904.94
2023-04-03T06:34:44.965Z,97908.38
2023-04-03T06:36:47.874Z,97915.25
2023-04-03T06:38:50.978Z,97910.91
2023-04-03T06:40:54.056Z,97912.63
2023-04-03T06:42:56.607Z,97906.63
2023-04-03T06:45:01.279Z,97917.84
2023-04-03T06:47:03.933Z,97917.84
2023-04-03T06:49:08.427Z,97914.41
2023-04-03T06:51:19.464Z,97917.88
2023-04-03T06:53:22.382Z,97918.69
2023-04-03T06:55:24.980Z,97917.00
2023-04-03T06:57:27.793Z,97917.91
2023-04-03T06:59:30.392Z,97915.28
2023-04-03T07:01:34.487Z,97914.44
2023-04-03T07:03:37.682Z,97915.31
2023-04-03T07:05:40.662Z,97917.91
2023-04-03T07:07:43.752Z,97917.91
2023-04-03T07:09:47.760Z,97919.59
2023-04-03T07:11:50.347Z,97914.41
2023-04-03T07:13:52.983Z,97917.88
2023-04-03T07:15:55.593Z,97915.28
2023-04-03T07:17:59.575Z,97921.28
2023-04-03T07:20:02.159Z,97921.34
2023-04-03T07:22:04.728Z,97927.34
2023-04-03T07:24:09.010Z,97925.44
2023-04-03T07:26:14.071Z,97923.72
2023-04-03T07:28:17.760Z,97928.09
2023-04-03T07:30:20.307Z,97925.38
2023-04-03T07:32:22.849Z,97932.31
2023-04-03T07:34:26.750Z,97938.41
2023-04-03T07:36:34.279Z,97928.03
2023-04-03T07:38:38.147Z,97935.84
2023-04-03T07:40:41.057Z,97936.69
2023-04-03T07:42:43.582Z,97940.97
2023-04-03T07:44:46.581Z,97940.09
2023-04-03T07:46:49.418Z,97939.25
2023-04-03T07:48:52.089Z,97946.09
2023-04-03T07:50:57.932Z,97940.94
2023-04-03T07:53:00.497Z,97939.22
2023-04-03T07:55:03.127Z,97935.75
2023-04-03T07:57:06.042Z,97939.22
2023-04-03T07:59:08.772Z,97940.91
2023-04-03T08:01:11.565Z,97943.41
2023-04-03T08:03:15.023Z,97935.63
2023-04-03T08:05:18.104Z,97942.47
2023-04-03T08:07:22.546Z,97943.22
2023-04-03T08:09:25.110Z,97948.41
2023-04-03T08:11:28.267Z,97938.91
2023-04-03T08:13:31.990Z,97951.00
2023-04-03T08:15:34.868Z,97951.00
2023-04-03T08:17:37.989Z,97949.22
2023-04-03T08:19:41.620Z,97954.44
2023-04-03T08:21:44.239Z,97957.72
2023-04-03T08:23:50.402Z,97943.09
2023-04-03T08:25:52.976Z,97956.16
2023-04-03T08:27:55.500Z,97955.13
2023-04-03T08:29:58.197Z,97953.38
2023-04-03T08:32:00.795Z,97959.41
2023-04-03T08:34:03.365Z,97944.78
2023-04-03T08:36:07.390Z,97953.38
2023-04-03T08:38:10.554Z,97946.44
2023-04-03T08:40:17.879Z,97952.44
2023-04-03T08:42:38.074Z,97950.72
2023-04-03T08:44:47.806Z,97944.63
2023-04-03T08:47:05.426Z,97955.94
2023-04-03T08:49:16.715Z,97955.94
2023-04-03T08:51:21.855Z,97958.28
2023-04-03T08:53:29.472Z,97966.19
2023-04-03T08:55:36.485Z,97960.16
2023-04-03T08:57:42.922Z,97953.25
2023-04-03T08:59:45.667Z,97952.34
2023-04-03T09:01:49.129Z,97962.69
2023-04-03T09:03:51.732Z,97960.03
2023-04-03T09:05:59.506Z,97969.53
2023-04-03T09:08:09.583Z,97965.25
2023-04-03T09:10:14.387Z,97962.63
2023-04-03T09:12:24.884Z,97962.63
2023-04-03T09:14:35.186Z,97958.41
2023-04-03T09:16:49.924Z,97964.41
2023-04-03T09:18:59.699Z,97966.13
2023-04-03T09:21:09.433Z,97963.53
2023-04-03T09:23:21.460Z,97960.03
2023-04-03T09:25:27.519Z,97965.22
2023-04-03T09:27:31.747Z,97957.47
2023-04-03T09:29:40.558Z,97962.63
2023-04-03T09:31:46.316Z,97966.09
2023-04-03T09:33:51.266Z,97972.06
2023-04-03T09:35:53.837Z,97961.69
2023-04-03T09:38:00.762Z,97960.81
2023-04-03T09:40:03.857Z,97960.72
2023-04-03T09:42:13.719Z,97959.00
2023-04-03T09:44:25.832Z,97955.38
2023-04-03T09:46:32.832Z,97957.97
2023-04-03T09:48:35.571Z,97964.84
2023-04-03T09:50:39.370Z,97964.78
2023-04-03T09:52:43.554Z,97956.91
2023-04-03T09:54:46.284Z,97960.53
2023-04-03T09:56:52.529Z,97956.25
2023-04-03T09:59:15.894Z,97958.91
2023-04-03T10:01:33.133Z,97957.06
2023-04-03T10:03:37.551Z,97965.75
2023-04-03T10:05:41.233Z,97964.94
2023-04-03T10:07:48.630Z,97955.34
2023-04-03T10:09:58.968Z,97957.91
2023-04-03T10:12:06.363Z,97959.59
2023-04-03T10:14:18.750Z,97960.44
2023-04-03T10:16:25.665Z,97957.78
2023-04-03T10:18:41.235Z,97955.19
2023-04-03T10:20:50.401Z,97949.81
2023-04-03T10:23:02.206Z,97954.03
2023-04-03T10:25:06.397Z,97954.84
2023-04-03T10:27:15.481Z,97948.91
2023-04-03T10:29:28.337Z,97945.53
2023-04-03T10:31:39.183Z,97953.41
2023-04-03T10:33:55.459Z,97947.28
2023-04-03T10:36:10.372Z,97942.97
2023-04-03T10:38:20.868Z,97949.97
2023-04-03T10:40:33.863Z,97951.75
2023-04-03T10:42:45.763Z,97943.03
2023-04-03T10:44:54.355Z,97934.47
2023-04-03T10:47:04.972Z,97941.41
2023-04-03T10:49:21.779Z,97941.44
2023-04-03T10:51:29.869Z,97934.44
2023-04-03T10:53:40.978Z,97948.13
2023-04-03T10:55:53.572Z,97941.97
2023-04-03T10:57:58.241Z,97940.22
2023-04-03T11:00:05.077Z,97932.41
2023-04-03T11:02:16.220Z,97941.09
2023-04-03T11:04:22.795Z,97938.53
2023-04-03T11:06:28.714Z,97933.34
2023-04-03T11:08:39.016Z,97935.88
2023-04-03T11:10:44.530Z,97928.03
2023-04-03T11:12:53.576Z,97932.28
2023-04-03T11:14:58.663Z,97929.63
2023-04-03T11:17:17.488Z,97931.34
2023-04-03T11:19:25.251Z,97932.09
2023-04-03T11:21:32.083Z,97940.81
2023-04-03T11:23:49.035Z,97938.16
2023-04-03T11:25:56.385Z,97940.72
2023-04-03T11:28:00.560Z,97931.25
2023-04-03T11:30:07.787Z,97937.31
2023-04-03T11:32:23.071Z,97932.09
2023-04-03T11:34:39.173Z,97932.06
2023-04-03T11:36:46.686Z,97929.50
2023-04-03T11:38:54.716Z,97926.91
2023-04-03T11:40:58.672Z,97925.16
2023-04-03T11:43:08.570Z,97928.72
2023-04-03T11:45:29.754Z,97935.69
2023-04-03T11:47:49.176Z,97927.94
2023-04-03T11:50:02.055Z,97921.88
2023-04-03T11:52:05.056Z,97931.34
2023-04-03T11:54:46.608Z,97922.50
2023-04-03T11:56:49.158Z,97922.63
2023-04-03T11:59:26.024Z,97915.72
2023-04-03T12:01:50.171Z,97918.41
2023-04-03T12:04:10.058Z,97921.94
2023-04-03T12:06:51.185Z,97915.81
2023-04-03T12:08:56.530Z,97915.91
2023-04-03T12:11:18.399Z,97921.94
2023-04-03T12:13:21.093Z,97918.47
2023-04-03T12:15:46.717Z,97908.97
2023-04-03T12:17:49.565Z,97911.47
2023-04-03T12:19:52.727Z,97920.13
2023-04-03T12:22:25.621Z,97913.16
2023-04-03T12:24:31.148Z,97915.72
2023-04-03T12:26:48.220Z,97908.81
2023-04-03T12:28:54.784Z,97907.09
2023-04-03T12:30:57.776Z,97903.63
2023-04-03T12:33:22.306Z,97905.06
2023-04-03T12:35:32.411Z,97904.38
2023-04-03T12:37:58.509Z,97909.66
2023-04-03T12:40:12.621Z,97894.88
2023-04-03T12:42:35.540Z,97905.28
2023-04-03T12:44:46.961Z,97895.75
2023-04-03T12:46:51.882Z,97901.81
2023-04-03T12:48:56.400Z,97907.81
2023-04-03T12:51:00.447Z,97898.16
2023-04-03T12:53:06.272Z,97903.38
2023-04-03T12:55:19.731Z,97889.47
2023-04-03T12:57:25.967Z,97898.84
2023-04-03T12:59:28.888Z,97893.59
2023-04-03T13:01:31.428Z,97892.63
2023-04-03T13:03:34.237Z,97897.88
2023-04-03T13:05:37.404Z,97892.47
2023-04-03T13:07:41.924Z,97893.50
2023-04-03T13:09:44.634Z,97884.94
2023-04-03T13:11:48.736Z,97892.78
2023-04-03T13:14:00.470Z,97890.34
2023-04-03T13:16:10.131Z,97891.31
2023-04-03T13:18:24.899Z,97893.16
2023-04-03T13:20:29.766Z,97893.16
2023-04-03T13:22:40.184Z,97892.34
2023-04-03T13:24:44.863Z,97893.16
2023-04-03T13:26:48.930Z,97895.78
2023-04-03T13:28:53.774Z,97899.19
2023-04-03T13:31:01.224Z,97896.56
2023-04-03T13:33:06.765Z,97897.41
2023-04-03T13:35:35.002Z,97894.75
2023-04-03T13:37:37.631Z,97900.84
2023-04-03T13:39:41.712Z,97894.78
2023-04-03T13:41:46.990Z,97885.31
2023-04-03T13:43:53.629Z,97889.59
2023-04-03T13:46:07.450Z,97885.19
2023-04-03T13:48:23.102Z,97883.50
2023-04-03T13:50:29.928Z,97885.97
2023-04-03T13:52:36.705Z,97887.78
2023-04-03T13:54:41.132Z,97886.94
2023-04-03T13:56:43.812Z,97895.66
2023-04-03T13:59:04.409Z,97898.28
2023-04-03T14:01:13.919Z,97888.81
2023-04-03T14:03:23.507Z,97893.06
2023-04-03T14:05:27.606Z,97887.06
2023-04-03T14:07:31.925Z,97887.09
2023-04-03T14:09:34.509Z,97886.88
2023-04-03T14:11:37.351Z,97888.56
2023-04-03T14:13:39.926Z,97885.19
2023-04-03T14:15:48.324Z,97880.78
2023-04-03T14:17:52.429Z,97879.09
2023-04-03T14:19:56.510Z,97886.03
2023-04-03T14:21:59.796Z,97877.25
2023-04-03T14:24:02.454Z,97875.47
2023-04-03T14:26:05.042Z,97877.19
2023-04-03T14:28:17.977Z,97876.31
2023-04-03T14:30:23.135Z,97870.06
2023-04-03T14:32:28.726Z,97867.53
2023-04-03T14:34:31.506Z,97863.31
2023-04-03T14:36:34.409Z,97865.94
2023-04-03T14:38:37.061Z,97872.94
2023-04-03T14:40:39.730Z,97866.00
2023-04-03T14:42:42.672Z,97866.81
2023-04-03T14:44:45.757Z,97862.47
2023-04-03T14:46:56.309Z,97857.34
2023-04-03T14:49:01.245Z,97852.97
2023-04-03T14:51:06.006Z,97852.97
2023-04-03T14:53:09.000Z,97861.56
2023-04-03T14:55:13.435Z,97853.75
2023-04-03T14:57:17.255Z,97857.19
2023-04-03T14:59:21.055Z,97858.19
2023-04-03T15:01:24.145Z,97853.03
2023-04-03T15:03:26.859Z,97848.81
2023-04-03T15:05:30.827Z,97851.44
2023-04-03T15:07:37.024Z,97851.44
2023-04-03T15:09:39.607Z,97848.78
2023-04-03T15:11:42.127Z,97847.94
2023-04-03T15:13:45.337Z,97843.56
2023-04-03T15:15:48.523Z,97846.13
2023-04-03T15:17:55.913Z,97849.56
2023-04-03T15:19:58.691Z,97850.47
2023-04-03T15:22:02.546Z,97852.19
2023-04-03T15:24:05.282Z,97854.00
2023-04-03T15:26:08.279Z,97849.59
2023-04-03T15:28:11.419Z,97847.84
2023-04-03T15:30:17.687Z,97852.19
2023-04-03T15:32:20.515Z,97851.31
2023-04-03T15:34:23.380Z,97858.94
2023-04-03T15:36:34.008Z,97857.41
2023-04-03T15:38:39.066Z,97854.03
2023-04-03T15:40:42.026Z,97860.78
2023-04-03T15:42:44.592Z,97858.34
2023-04-03T15:44:47.161Z,97849.84
2023-04-03T15:46:52.277Z,97850.78
2023-04-03T15:48:55.013Z,97853.25
2023-04-03T15:50:59.079Z,97852.41
2023-04-03T15:53:02.891Z,97851.56
2023-04-03T15:55:07.927Z,97842.03
2023-04-03T15:57:10.543Z,97848.94
2023-04-03T15:59:13.192Z,97845.47
2023-04-03T16:01:15.942Z,97843.72
2023-04-03T16:03:21.332Z,97848.84
2023-04-03T16:05:24.355Z,97851.53
2023-04-03T16:07:27.045Z,97842.78
2023-04-03T16:09:29.650Z,97844.41
2023-04-03T16:11:33.571Z,97843.50
2023-04-03T16:13:36.231Z,97847.78
2023-04-03T16:15:38.929Z,97845.19
2023-04-03T16:17:42.753Z,97847.78
2023-04-03T16:19:45.343Z,97856.84
2023-04-03T16:21:47.936Z,97853.38
2023-04-03T16:23:50.515Z,97844.00
2023-04-03T16:25:53.147Z,97848.28
2023-04-03T16:27:57.046Z,97850.88
2023-04-03T16:30:00.033Z,97858.88
2023-04-03T16:32:04.089Z,97854.66
2023-04-03T16:34:06.664Z,97858.13
2023-04-03T16:36:09.512Z,97854.00
2023-04-03T16:38:12.158Z,97862.66
2023-04-03T16:40:14.788Z,97859.19
2023-04-03T16:42:17.541Z,97860.94
2023-04-03T16:44:21.422Z,97865.22
2023-04-03T16:46:24.200Z,97866.13
2023-04-03T16:48:27.102Z,97860.16
2023-04-03T16:50:31.988Z,97862.75
2023-04-03T16:52:35.016Z,97860.97
2023-04-03T16:54:37.640Z,97866.16
2023-04-03T16:56:40.171Z,97858.47
2023-04-03T16:58:42.692Z,97864.63
2023-04-03T17:00:48.176Z,97856.00
2023-04-03T17:02:51.009Z,97855.16
2023-04-03T17:04:53.754Z,97861.16
2023-04-03T17:06:57.035Z,97863.81
2023-04-03T17:08:59.635Z,97867.25
2023-04-03T17:11:02.260Z,97870.00
2023-04-03T17:13:05.314Z,97864.88
2023-04-03T17:15:08.776Z,97868.41
2023-04-03T17:17:12.891Z,97867.53
2023-04-03T17:19:17.339Z,97876.25
2023-04-03T17:21:19.922Z,97869.28
2023-04-03T17:23:22.469Z,97867.63
2023-04-03T17:25:25.027Z,97863.38
2023-04-03T17:27:27.693Z,97864.25
2023-04-03T17:29:30.408Z,97865.81
2023-04-03T17:31:33.179Z,97867.56
2023-04-03T17:33:37.179Z,97864.16
2023-04-03T17:35:39.990Z,97863.38
2023-04-03T17:37:42.752Z,97866.03
2023-04-03T17:39:46.847Z,97862.47
2023-04-03T17:41:49.622Z,97863.41
2023-04-03T17:43:52.203Z,97857.44
2023-04-03T17:45:56.012Z,97861.78
2023-04-03T17:47:58.654Z,97860.03
2023-04-03T17:50:02.597Z,97867.91
2023-04-03T17:52:05.248Z,97864.44
2023-04-03T17:54:07.905Z,97862.66
2023-04-03T17:56:12.679Z,97861.13
2023-04-03T17:58:15.272Z,97866.28
2023-04-03T18:00:18.987Z,97868.94
2023-04-03T18:02:21.599Z,97875.09
2023-04-03T18:04:25.207Z,97874.25
2023-04-03T18:06:32.672Z,97866.53
2023-04-03T18:08:37.601Z,97874.31
2023-04-03T18:10:40.432Z,97878.69
2023-04-03T18:12:43.454Z,97872.59
2023-04-03T18:14:46.850Z,97865.72
2023-04-03T18:16:49.705Z,97871.81
2023-04-03T18:19:02.487Z,97876.09
2023-04-03T18:21:16.090Z,97870.13
2023-04-03T18:23:20.061Z,97875.31
2023-04-03T18:25:22.687Z,97874.47
2023-04-03T18:27:28.044Z,97877.06
2023-04-03T18:29:33.718Z,97881.41
2023-04-03T18:31:38.156Z,97883.16
2023-04-03T18:33:40.812Z,97880.56
2023-04-03T18:35:43.568Z,97884.94
2023-04-03T18:37:46.420Z,97878.91
2023-04-03T18:39:50.305Z,97882.41
2023-04-03T18:41:53.532Z,97876.38
2023-04-03T18:43:57.116Z,97882.41
2023-04-03T18:45:59.691Z,97884.16
2023-04-03T18:48:02.552Z,97882.44
2023-04-03T18:50:06.676Z,97885.03
2023-04-03T18:52:10.253Z,97882.44
2023-04-03T18:54:12.856Z,97887.63
2023-04-03T18:56:16.792Z,97891.13
2023-04-03T18:58:19.341Z,97887.66
2023-04-03T19:00:22.022Z,97888.50
2023-04-03T19:02:25.984Z,97888.53
2023-04-03T19:04:29.844Z,97888.56
2023-04-03T19:06:33.858Z,97886.84
2023-04-03T19:08:37.242Z,97884.25
2023-04-03T19:10:39.835Z,97886.84
2023-04-03T19:12:44.246Z,97887.75
2023-04-03T19:14:46.791Z,97894.66
2023-04-03T19:16:49.377Z,97898.09
2023-04-03T19:18:52.201Z,97892.06
2023-04-03T19:20:56.717Z,97887.75
2023-04-03T19:22:59.347Z,97896.44
2023-04-03T19:25:01.910Z,97888.63
2023-04-03T19:27:04.658Z,97886.91
2023-04-03T19:29:08.706Z,97889.53
2023-04-03T19:31:15.467Z,97882.63
2023-04-03T19:33:18.156Z,97889.56
2023-04-03T19:35:20.810Z,97884.41
2023-04-03T19:37:24.831Z,97889.63
2023-04-03T19:39:29.023Z,97878.47
2023-04-03T19:41:34.643Z,97886.28
2023-04-03T19:43:37.330Z,97884.50
2023-04-03T19:45:42.066Z,97877.63
2023-04-03T19:47:45.125Z,97887.13
2023-04-03T19:49:49.778Z,97877.63
2023-04-03T19:51:53.335Z,97881.09
2023-04-03T19:53:55.908Z,97885.44
2023-04-03T19:56:01.367Z,97885.44
2023-04-03T19:58:04.504Z,97888.84
2023-04-03T20:00:08.458Z,97889.75
2023-04-03T20:02:12.572Z,97882.84
2023-04-03T20:04:15.162Z,97888.03
2023-04-03T20:06:18.211Z,97886.34
2023-04-03T20:08:21.077Z,97884.63
2023-04-03T20:10:23.636Z,97886.41
2023-04-03T20:12:26.255Z,97889.00
2023-04-03T20:14:29.110Z,97893.34
2023-04-03T20:16:31.725Z,97895.13
2023-04-03T20:18:36.584Z,97886.50
2023-04-03T20:20:42.041Z,97885.69
2023-04-03T20:22:44.924Z,97887.41
2023-04-03T20:24:47.473Z,97884.81
2023-04-03T20:26:51.150Z,97880.53
2023-04-03T20:28:54.658Z,97890.75
2023-04-03T20:30:57.204Z,97885.59
2023-04-03T20:33:00.018Z,97888.28
2023-04-03T20:35:04.844Z,97887.41
2023-04-03T20:37:08.461Z,97877.06
2023-04-03T20:39:11.077Z,97884.81
2023-04-03T20:41:13.693Z,97884.84
2023-04-03T20:43:17.003Z,97882.28
2023-04-03T20:45:21.367Z,97883.22
2023-04-03T20:47:24.244Z,97889.13
2023-04-03T20:49:26.867Z,97882.31
2023-04-03T20:51:31.363Z,97884.84
2023-04-03T20:53:33.884Z,97886.66
2023-04-03T20:55:37.266Z,97882.31
2023-04-03T20:57:39.821Z,97879.75
2023-04-03T20:59:43.816Z,97880.66
2023-04-03T21:01:46.901Z,97884.13
2023-04-03T21:03:52.429Z,97885.81
2023-04-03T21:05:59.654Z,97889.28
2023-04-03T21:08:39.957Z,97883.31
2023-04-03T21:11:23.552Z,97873.91
2023-04-03T21:14:03.410Z,97879.06
2023-04-03T21:16:05.730Z,97874.72
2023-04-03T21:18:42.413Z,97874.00
2023-04-03T21:20:47.690Z,97870.50
2023-04-03T21:22:50.369Z,97881.75
2023-04-03T21:24:52.970Z,97874.03
2023-04-03T21:26:58.058Z,97877.44
2023-04-03T21:29:01.568Z,97882.59
2023-04-03T21:31:04.212Z,97878.34
2023-04-03T21:33:06.819Z,97883.56
2023-04-03T21:35:10.798Z,97876.69
2023-04-03T21:37:14.373Z,97877.59
2023-04-03T21:39:17.584Z,97871.56
2023-04-03T21:41:21.553Z,97878.47
2023-04-03T21:43:24.098Z,97877.63
2023-04-03T21:45:26.760Z,97880.22
2023-04-03T21:47:29.380Z,97878.53
2023-04-03T21:49:31.954Z,97877.63
2023-04-03T21:51:36.651Z,97880.22
2023-04-03T21:53:39.962Z,97881.13
2023-04-03T21:55:42.656Z,97880.28
2023-04-03T21:57:52.112Z,97884.53
2023-04-03T21:59:54.696Z,97882.88
2023-04-03T22:01:57.429Z,97879.47
2023-04-03T22:04:02.483Z,97882.94
2023-04-03T22:06:05.550Z,97877.72
2023-04-03T22:08:09.436Z,97880.38
2023-04-03T22:10:12.250Z,97880.38
2023-04-03T22:12:14.774Z,97883.84
2023-04-03T22:14:18.031Z,97882.16
2023-04-03T22:16:20.977Z,97885.63
2023-04-03T22:18:23.648Z,97878.72
2023-04-03T22:20:26.383Z,97879.59
2023-04-03T22:22:28.924Z,97883.03
2023-04-03T22:24:32.809Z,97886.50
2023-04-03T22:26:36.289Z,97883.94
2023-04-03T22:28:39.974Z,97884.81
2023-04-03T22:30:42.634Z,97886.53
2023-04-03T22:32:46.038Z,97889.13
2023-04-03T22:34:48.630Z,97888.28
2023-04-03T22:36:51.151Z,97902.06
2023-04-03T22:38:53.810Z,97885.69
2023-04-03T22:41:02.189Z,97896.91
2023-04-03T22:43:04.750Z,97887.44
2023-04-03T22:45:08.426Z,97895.19
2023-04-03T22:47:11.244Z,97889.19
2023-04-03T22:49:14.077Z,97899.56
2023-04-03T22:51:16.648Z,97897.84
2023-04-03T22:53:20.028Z,97903.00
2023-04-03T22:55:24.374Z,97899.59
2023-04-03T22:57:28.271Z,97905.63
2023-04-03T22:59:31.218Z,97903.91
2023-04-03T23:01:33.882Z,97909.97
2023-04-03T23:03:38.274Z,97904.81
2023-04-03T23:05:41.601Z,97903.94
2023-04-03T23:07:44.128Z,97901.38
2023-04-03T23:09:46.685Z,97903.97
2023-04-03T23:11:49.216Z,97900.53
2023-04-03T23:13:53.091Z,97904.00
2023-04-03T23:15:55.903Z,97910.00
2023-04-03T23:17:58.529Z,97910.91
2023-04-03T23:20:01.139Z,97907.47
2023-04-03T23:22:03.715Z,97910.88
2023-04-03T23:24:06.883Z,97916.91
2023-04-03T23:26:10.113Z,97910.91
2023-04-03T23:28:12.679Z,97913.47
2023-04-03T23:30:16.574Z,97917.81
2023-04-03T23:32:19.159Z,97917.78
2023-04-03T23:34:21.723Z,97924.69
2023-04-03T23:36:24.356Z,97916.94
2023-04-03T23:38:27.767Z,97915.22
2023-04-03T23:40:30.350Z,97912.66
2023-04-03T23:42:32.870Z,97910.06
2023-04-03T23:44:35.506Z,97917.81
2023-04-03T23:46:39.425Z,97921.25
2023-04-03T23:48:41.956Z,97921.25
2023-04-03T23:50:44.691Z,97914.41
2023-04-03T23:52:47.317Z,97913.53
2023-04-03T23:54:50.511Z,97918.69
2023-04-03T23:56:53.056Z,97915.22
2023-04-03T23:58:55.674Z,97903.22
